Airfield :
LOGIN :

Register | Disclaimer

   EN    FR    IT 

 










Legend :    VFR   Marginal VFR   IFR   Intensive IFR   Very Intensive IFR
Visi :
Ceiling :
>= 8 km
>= 3000ft
5 to 8 km
1000 to 3000 ft
1500m to 5 km
500 to 1000 ft
800 to 1500m
200 to 500 ft
< 800m
< 200 ft
Symbols :   Thunderstorms  Fog  Heavy snow  Heavy precipitations  Wind > 20 kt
SIGMETs :     Misc.  Thunderstorms  Icing  Turbulence  Mountain Waves  Volcanic Ashes







- Airport Elevation : 3 ft
- IATA code : LWR


EHLW - Leuuwarden Air Base

CURRENT METAR :
  • 190841Z AUTO 01008KT 340V050 6000 BR OVC220 15/13 Q1007 WHT

EXPIRED METARs :
  • 190831Z AUTO 01009KT 340V040 5000 BR FEW007 SCT075 OVC220 14/13 Q1007 WHT
  • 190825Z AUTO 36009KT 340V040 5000 BR SCT006 OVC230 14/13 Q1007 YLO
  • 190820Z AUTO 01009KT 340V040 5000 BR SCT006 BKN240 14/13 Q1007 YLO
  • 190755Z AUTO 36010KT 4600 BR BKN006 BKN007 BKN076 14/13 Q1007 YLO
  • 190730Z AUTO 36010KT 4300 BR BKN006 BKN008 OVC230 14/13 Q1007 YLO
  • 190729Z AUTO 36009KT 4300 BR SCT006 OVC230 15/13 Q1007 YLO
  • 190708Z AUTO 36008KT 340V040 4500 BR FEW006 SCT007 OVC250 14/13 Q1007 GRN
  • 190658Z AUTO 01008KT 340V040 4300 BR SCT006 OVC260 14/13 Q1007 YLO
  • 190648Z AUTO 01008KT 4200 BR FEW006 OVC250 14/13 Q1007 GRN
  • 190632Z AUTO 01009KT 330V040 3900 BR FEW005 BKN250 13/13 Q1007 GRN
  • 190621Z AUTO 01008KT 330V030 3400 BR FEW005 SCT006 BKN072 13/13 Q1007 YLO
  • 190605Z AUTO 36008KT 330V030 3200 BR FEW004 SCT005 BKN007 13/13 Q1007 YLO
  • 190555Z AUTO 35009KT 3000 BR SCT004 SCT005 OVC069 13/13 Q1007 YLO

TAF TAF EHLW
Valid from the 19 at 05:00 until the 19 at 17:00 UTC


190435Z 1905/1917 35006KT 2000 BR BKN120
BECMG 1905/1907 8000 NSW
BECMG 1915/1917 2000 BR BKN003
No reported NOTAMs for that airfield.



MET'MAP, your aeronautical weather chart ! - Copyright ORBIFLY December 2007 - Disclaimer

ORBIFLY MET'MAP TEAM :

Programming & Development : Alexandra Zaïnal
Concept & Development : Baudouin d'Aumeries
Co-Development & Prog : Marc-Olivier Méhu
Technical & hardware support : Manuel Goepfert

Contact : metmap@orbifly.com




SOURCES & CREDITS :

   NOAA